sensor_id;sensor_type;location;lat;lon;timestamp;temperature;humidity
20091;DHT22;10205;49.678;6.560;2022-12-31T00:01:13;16.70;78.20
20091;DHT22;10205;49.678;6.560;2022-12-31T00:03:42;16.70;78.00
20091;DHT22;10205;49.678;6.560;2022-12-31T00:06:16;16.70;77.90
20091;DHT22;10205;49.678;6.560;2022-12-31T00:08:47;16.60;78.00
20091;DHT22;10205;49.678;6.560;2022-12-31T00:11:16;16.60;78.00
20091;DHT22;10205;49.678;6.560;2022-12-31T00:13:43;16.60;77.90
20091;DHT22;10205;49.678;6.560;2022-12-31T00:16:13;16.60;78.00
20091;DHT22;10205;49.678;6.560;2022-12-31T00:18:42;16.60;78.10
20091;DHT22;10205;49.678;6.560;2022-12-31T00:21:10;16.60;78.40
20091;DHT22;10205;49.678;6.560;2022-12-31T00:23:38;16.60;78.20
20091;DHT22;10205;49.678;6.560;2022-12-31T00:26:09;16.60;78.10
20091;DHT22;10205;49.678;6.560;2022-12-31T00:28:38;16.60;78.10
20091;DHT22;10205;49.678;6.560;2022-12-31T00:31:07;16.60;78.20
20091;DHT22;10205;49.678;6.560;2022-12-31T00:33:35;16.60;78.30
20091;DHT22;10205;49.678;6.560;2022-12-31T00:36:05;16.60;78.30
20091;DHT22;10205;49.678;6.560;2022-12-31T00:38:34;16.60;78.30
20091;DHT22;10205;49.678;6.560;2022-12-31T00:41:02;16.60;78.30
20091;DHT22;10205;49.678;6.560;2022-12-31T00:43:31;16.60;78.50
20091;DHT22;10205;49.678;6.560;2022-12-31T00:45:59;16.60;78.70
20091;DHT22;10205;49.678;6.560;2022-12-31T00:48:26;16.60;78.80
20091;DHT22;10205;49.678;6.560;2022-12-31T00:50:55;16.60;79.00
20091;DHT22;10205;49.678;6.560;2022-12-31T00:53:24;16.60;78.80
20091;DHT22;10205;49.678;6.560;2022-12-31T00:55:51;16.60;78.90
20091;DHT22;10205;49.678;6.560;2022-12-31T00:58:25;16.60;78.70
20091;DHT22;10205;49.678;6.560;2022-12-31T01:00:53;16.70;78.70
20091;DHT22;10205;49.678;6.560;2022-12-31T01:03:20;16.70;78.60
20091;DHT22;10205;49.678;6.560;2022-12-31T01:05:48;16.70;78.40
20091;DHT22;10205;49.678;6.560;2022-12-31T01:08:15;16.70;78.50
20091;DHT22;10205;49.678;6.560;2022-12-31T01:10:47;16.70;78.60
20091;DHT22;10205;49.678;6.560;2022-12-31T01:13:35;16.80;78.60
20091;DHT22;10205;49.678;6.560;2022-12-31T01:16:07;16.80;78.40
20091;DHT22;10205;49.678;6.560;2022-12-31T01:18:35;16.70;78.50
20091;DHT22;10205;49.678;6.560;2022-12-31T01:21:04;16.80;78.40
20091;DHT22;10205;49.678;6.560;2022-12-31T01:23:33;16.80;78.20
20091;DHT22;10205;49.678;6.560;2022-12-31T01:26:02;16.80;78.20
20091;DHT22;10205;49.678;6.560;2022-12-31T01:28:31;16.90;78.20
20091;DHT22;10205;49.678;6.560;2022-12-31T01:31:04;16.80;78.10
20091;DHT22;10205;49.678;6.560;2022-12-31T01:33:33;16.90;78.20
20091;DHT22;10205;49.678;6.560;2022-12-31T01:36:02;16.90;78.10
20091;DHT22;10205;49.678;6.560;2022-12-31T01:38:30;16.90;78.10
20091;DHT22;10205;49.678;6.560;2022-12-31T01:41:01;16.90;78.00
20091;DHT22;10205;49.678;6.560;2022-12-31T01:43:44;16.90;78.00
20091;DHT22;10205;49.678;6.560;2022-12-31T01:46:24;16.90;78.10
20091;DHT22;10205;49.678;6.560;2022-12-31T01:49:00;16.90;78.00
20091;DHT22;10205;49.678;6.560;2022-12-31T01:51:30;16.90;77.70
20091;DHT22;10205;49.678;6.560;2022-12-31T01:54:01;16.90;77.70
20091;DHT22;10205;49.678;6.560;2022-12-31T01:56:31;17.00;77.80
20091;DHT22;10205;49.678;6.560;2022-12-31T01:59:05;17.00;77.90
20091;DHT22;10205;49.678;6.560;2022-12-31T02:01:36;17.00;77.90
20091;DHT22;10205;49.678;6.560;2022-12-31T02:04:10;17.00;77.80
20091;DHT22;10205;49.678;6.560;2022-12-31T02:06:42;17.00;77.80
20091;DHT22;10205;49.678;6.560;2022-12-31T02:09:13;17.00;77.80
20091;DHT22;10205;49.678;6.560;2022-12-31T02:11:41;17.00;77.90
20091;DHT22;10205;49.678;6.560;2022-12-31T02:14:12;17.00;77.80
20091;DHT22;10205;49.678;6.560;2022-12-31T02:16:45;17.00;77.70
20091;DHT22;10205;49.678;6.560;2022-12-31T02:19:53;17.00;77.70
20091;DHT22;10205;49.678;6.560;2022-12-31T02:26:06;17.00;77.70
20091;DHT22;10205;49.678;6.560;2022-12-31T02:29:05;17.00;77.80
20091;DHT22;10205;49.678;6.560;2022-12-31T02:31:57;17.00;78.00
20091;DHT22;10205;49.678;6.560;2022-12-31T02:34:28;17.10;77.70
20091;DHT22;10205;49.678;6.560;2022-12-31T02:37:02;17.00;77.80
20091;DHT22;10205;49.678;6.560;2022-12-31T02:39:34;17.00;77.70
20091;DHT22;10205;49.678;6.560;2022-12-31T02:42:02;17.00;77.80
20091;DHT22;10205;49.678;6.560;2022-12-31T02:44:31;17.10;77.80
20091;DHT22;10205;49.678;6.560;2022-12-31T02:47:12;17.00;77.80
20091;DHT22;10205;49.678;6.560;2022-12-31T02:49:59;17.10;78.10
20091;DHT22;10205;49.678;6.560;2022-12-31T02:52:40;17.00;77.80
20091;DHT22;10205;49.678;6.560;2022-12-31T02:55:18;17.00;77.70
20091;DHT22;10205;49.678;6.560;2022-12-31T02:57:58;17.00;77.80
20091;DHT22;10205;49.678;6.560;2022-12-31T03:00:39;17.10;77.90
20091;DHT22;10205;49.678;6.560;2022-12-31T03:03:29;17.00;77.70
20091;DHT22;10205;49.678;6.560;2022-12-31T03:05:57;17.00;77.60
20091;DHT22;10205;49.678;6.560;2022-12-31T03:08:27;17.10;77.60
20091;DHT22;10205;49.678;6.560;2022-12-31T03:10:54;17.10;77.80
20091;DHT22;10205;49.678;6.560;2022-12-31T03:13:22;17.10;77.60
20091;DHT22;10205;49.678;6.560;2022-12-31T03:15:48;17.10;77.70
20091;DHT22;10205;49.678;6.560;2022-12-31T03:18:17;17.10;77.70
20091;DHT22;10205;49.678;6.560;2022-12-31T03:21:12;17.10;77.70
20091;DHT22;10205;49.678;6.560;2022-12-31T03:24:08;17.10;77.70
20091;DHT22;10205;49.678;6.560;2022-12-31T03:26:52;17.20;77.50
20091;DHT22;10205;49.678;6.560;2022-12-31T03:29:19;17.10;77.50
20091;DHT22;10205;49.678;6.560;2022-12-31T03:31:46;17.20;77.50
20091;DHT22;10205;49.678;6.560;2022-12-31T03:34:13;17.20;77.60
20091;DHT22;10205;49.678;6.560;2022-12-31T03:36:42;17.20;77.60
20091;DHT22;10205;49.678;6.560;2022-12-31T03:39:09;17.20;77.60
20091;DHT22;10205;49.678;6.560;2022-12-31T03:41:36;17.20;77.50
20091;DHT22;10205;49.678;6.560;2022-12-31T03:44:03;17.10;77.50
20091;DHT22;10205;49.678;6.560;2022-12-31T03:46:30;17.10;77.40
20091;DHT22;10205;49.678;6.560;2022-12-31T03:48:57;17.20;77.50
20091;DHT22;10205;49.678;6.560;2022-12-31T03:51:24;17.10;77.30
20091;DHT22;10205;49.678;6.560;2022-12-31T03:53:52;17.20;77.50
20091;DHT22;10205;49.678;6.560;2022-12-31T03:56:19;17.20;77.50
20091;DHT22;10205;49.678;6.560;2022-12-31T03:58:46;17.20;77.50
20091;DHT22;10205;49.678;6.560;2022-12-31T04:01:13;17.20;77.40
20091;DHT22;10205;49.678;6.560;2022-12-31T04:03:40;17.20;77.30
20091;DHT22;10205;49.678;6.560;2022-12-31T04:06:07;17.20;77.30
20091;DHT22;10205;49.678;6.560;2022-12-31T04:08:34;17.20;77.40
20091;DHT22;10205;49.678;6.560;2022-12-31T04:11:02;17.20;77.30
20091;DHT22;10205;49.678;6.560;2022-12-31T04:13:30;17.20;77.30
20091;DHT22;10205;49.678;6.560;2022-12-31T04:15:57;17.20;77.20
20091;DHT22;10205;49.678;6.560;2022-12-31T04:18:24;17.20;77.10
20091;DHT22;10205;49.678;6.560;2022-12-31T04:20:51;17.20;77.00
20091;DHT22;10205;49.678;6.560;2022-12-31T04:23:18;17.30;77.20
20091;DHT22;10205;49.678;6.560;2022-12-31T04:25:45;17.30;77.10
20091;DHT22;10205;49.678;6.560;2022-12-31T04:28:13;17.30;77.10
20091;DHT22;10205;49.678;6.560;2022-12-31T04:30:40;17.30;77.10
20091;DHT22;10205;49.678;6.560;2022-12-31T04:33:07;17.30;76.90
20091;DHT22;10205;49.678;6.560;2022-12-31T04:35:34;17.30;76.90
20091;DHT22;10205;49.678;6.560;2022-12-31T04:38:02;17.30;76.90
20091;DHT22;10205;49.678;6.560;2022-12-31T04:40:29;17.30;77.70
20091;DHT22;10205;49.678;6.560;2022-12-31T04:42:56;17.30;76.80
20091;DHT22;10205;49.678;6.560;2022-12-31T04:45:24;17.30;76.80
20091;DHT22;10205;49.678;6.560;2022-12-31T04:47:51;17.30;76.80
20091;DHT22;10205;49.678;6.560;2022-12-31T04:50:18;17.30;76.80
20091;DHT22;10205;49.678;6.560;2022-12-31T04:52:45;17.30;76.70
20091;DHT22;10205;49.678;6.560;2022-12-31T04:55:12;17.30;76.70
20091;DHT22;10205;49.678;6.560;2022-12-31T04:57:40;17.30;76.50
20091;DHT22;10205;49.678;6.560;2022-12-31T05:00:08;17.30;76.50
20091;DHT22;10205;49.678;6.560;2022-12-31T05:02:37;17.30;76.50
20091;DHT22;10205;49.678;6.560;2022-12-31T05:05:05;17.40;76.50
20091;DHT22;10205;49.678;6.560;2022-12-31T05:07:32;17.40;76.50
20091;DHT22;10205;49.678;6.560;2022-12-31T05:09:59;17.30;76.40
20091;DHT22;10205;49.678;6.560;2022-12-31T05:12:26;17.40;76.50
20091;DHT22;10205;49.678;6.560;2022-12-31T05:14:53;17.40;76.50
20091;DHT22;10205;49.678;6.560;2022-12-31T05:17:20;17.40;76.50
20091;DHT22;10205;49.678;6.560;2022-12-31T05:19:48;17.40;77.30
20091;DHT22;10205;49.678;6.560;2022-12-31T05:22:15;17.40;76.30
20091;DHT22;10205;49.678;6.560;2022-12-31T05:24:54;17.40;77.10
20091;DHT22;10205;49.678;6.560;2022-12-31T05:27:22;17.40;76.20
20091;DHT22;10205;49.678;6.560;2022-12-31T05:29:49;17.40;76.20
20091;DHT22;10205;49.678;6.560;2022-12-31T05:32:16;17.50;76.10
20091;DHT22;10205;49.678;6.560;2022-12-31T05:34:43;17.50;76.10
20091;DHT22;10205;49.678;6.560;2022-12-31T05:37:12;17.50;76.00
20091;DHT22;10205;49.678;6.560;2022-12-31T05:39:39;17.50;75.90
20091;DHT22;10205;49.678;6.560;2022-12-31T05:42:06;17.50;75.80
20091;DHT22;10205;49.678;6.560;2022-12-31T05:44:33;17.50;75.80
20091;DHT22;10205;49.678;6.560;2022-12-31T05:47:00;17.50;75.70
20091;DHT22;10205;49.678;6.560;2022-12-31T05:49:27;17.50;75.80
20091;DHT22;10205;49.678;6.560;2022-12-31T05:51:54;17.50;75.70
20091;DHT22;10205;49.678;6.560;2022-12-31T05:54:22;17.50;75.60
20091;DHT22;10205;49.678;6.560;2022-12-31T05:56:49;17.60;75.50
20091;DHT22;10205;49.678;6.560;2022-12-31T05:59:16;17.60;75.50
20091;DHT22;10205;49.678;6.560;2022-12-31T06:01:43;17.60;75.50
20091;DHT22;10205;49.678;6.560;2022-12-31T06:04:10;17.60;75.40
20091;DHT22;10205;49.678;6.560;2022-12-31T06:06:37;17.60;75.40
20091;DHT22;10205;49.678;6.560;2022-12-31T06:09:04;17.60;75.40
20091;DHT22;10205;49.678;6.560;2022-12-31T06:11:33;17.60;75.40
20091;DHT22;10205;49.678;6.560;2022-12-31T06:14:00;17.60;75.30
20091;DHT22;10205;49.678;6.560;2022-12-31T06:16:27;17.60;75.30
20091;DHT22;10205;49.678;6.560;2022-12-31T06:18:54;17.70;75.30
20091;DHT22;10205;49.678;6.560;2022-12-31T06:21:21;17.70;75.20
20091;DHT22;10205;49.678;6.560;2022-12-31T06:23:48;17.60;75.20
20091;DHT22;10205;49.678;6.560;2022-12-31T06:26:15;17.70;75.20
20091;DHT22;10205;49.678;6.560;2022-12-31T06:28:44;17.70;75.00
20091;DHT22;10205;49.678;6.560;2022-12-31T06:31:12;17.70;75.00
20091;DHT22;10205;49.678;6.560;2022-12-31T06:33:40;17.70;74.90
20091;DHT22;10205;49.678;6.560;2022-12-31T06:36:10;17.70;74.80
20091;DHT22;10205;49.678;6.560;2022-12-31T06:38:41;17.70;74.70
20091;DHT22;10205;49.678;6.560;2022-12-31T06:41:10;17.70;74.60
20091;DHT22;10205;49.678;6.560;2022-12-31T06:43:39;17.70;74.40
20091;DHT22;10205;49.678;6.560;2022-12-31T06:46:09;17.70;74.50
20091;DHT22;10205;49.678;6.560;2022-12-31T06:48:38;17.70;74.40
20091;DHT22;10205;49.678;6.560;2022-12-31T06:51:09;17.70;74.40
20091;DHT22;10205;49.678;6.560;2022-12-31T06:53:37;17.70;74.30
20091;DHT22;10205;49.678;6.560;2022-12-31T06:56:05;17.70;74.30
20091;DHT22;10205;49.678;6.560;2022-12-31T06:58:34;17.70;74.20
20091;DHT22;10205;49.678;6.560;2022-12-31T07:01:17;17.70;74.10
20091;DHT22;10205;49.678;6.560;2022-12-31T07:03:58;17.70;74.10
20091;DHT22;10205;49.678;6.560;2022-12-31T07:06:37;17.70;74.10
20091;DHT22;10205;49.678;6.560;2022-12-31T07:09:11;17.80;74.20
20091;DHT22;10205;49.678;6.560;2022-12-31T07:11:55;17.80;74.00
20091;DHT22;10205;49.678;6.560;2022-12-31T07:14:34;17.70;73.70
20091;DHT22;10205;49.678;6.560;2022-12-31T07:17:15;17.80;73.70
20091;DHT22;10205;49.678;6.560;2022-12-31T07:19:57;17.80;73.70
20091;DHT22;10205;49.678;6.560;2022-12-31T07:22:29;17.80;73.90
20091;DHT22;10205;49.678;6.560;2022-12-31T07:24:56;17.80;73.70
20091;DHT22;10205;49.678;6.560;2022-12-31T07:27:39;17.70;73.70
20091;DHT22;10205;49.678;6.560;2022-12-31T07:30:28;17.80;73.60
20091;DHT22;10205;49.678;6.560;2022-12-31T07:33:15;17.80;73.60
20091;DHT22;10205;49.678;6.560;2022-12-31T07:35:59;17.80;73.60
20091;DHT22;10205;49.678;6.560;2022-12-31T07:38:39;17.80;73.40
20091;DHT22;10205;49.678;6.560;2022-12-31T07:41:33;17.80;73.20
20091;DHT22;10205;49.678;6.560;2022-12-31T07:44:20;17.80;73.50
20091;DHT22;10205;49.678;6.560;2022-12-31T07:46:58;17.80;73.20
20091;DHT22;10205;49.678;6.560;2022-12-31T07:49:29;17.80;73.20
20091;DHT22;10205;49.678;6.560;2022-12-31T07:51:59;17.80;73.10
20091;DHT22;10205;49.678;6.560;2022-12-31T07:54:26;17.80;73.20
20091;DHT22;10205;49.678;6.560;2022-12-31T07:56:53;17.80;73.10
20091;DHT22;10205;49.678;6.560;2022-12-31T07:59:32;17.80;72.80
20091;DHT22;10205;49.678;6.560;2022-12-31T08:02:13;17.80;72.50
20091;DHT22;10205;49.678;6.560;2022-12-31T08:04:55;17.80;72.60
20091;DHT22;10205;49.678;6.560;2022-12-31T08:07:36;17.80;72.30
20091;DHT22;10205;49.678;6.560;2022-12-31T08:10:15;17.80;72.60
20091;DHT22;10205;49.678;6.560;2022-12-31T08:12:48;17.90;72.80
20091;DHT22;10205;49.678;6.560;2022-12-31T08:15:17;17.90;72.70
20091;DHT22;10205;49.678;6.560;2022-12-31T08:17:45;17.90;72.70
20091;DHT22;10205;49.678;6.560;2022-12-31T08:20:15;17.90;72.50
20091;DHT22;10205;49.678;6.560;2022-12-31T08:23:20;17.90;72.20
20091;DHT22;10205;49.678;6.560;2022-12-31T08:26:14;17.90;71.90
20091;DHT22;10205;49.678;6.560;2022-12-31T08:29:01;17.90;72.10
20091;DHT22;10205;49.678;6.560;2022-12-31T08:31:42;17.90;72.60
20091;DHT22;10205;49.678;6.560;2022-12-31T08:34:21;17.90;72.10
20091;DHT22;10205;49.678;6.560;2022-12-31T08:37:00;18.00;72.10
20091;DHT22;10205;49.678;6.560;2022-12-31T08:39:47;18.00;72.20
20091;DHT22;10205;49.678;6.560;2022-12-31T08:42:30;18.00;71.70
20091;DHT22;10205;49.678;6.560;2022-12-31T08:45:13;18.00;71.80
20091;DHT22;10205;49.678;6.560;2022-12-31T08:47:50;18.00;71.70
20091;DHT22;10205;49.678;6.560;2022-12-31T08:50:26;18.00;71.40
20091;DHT22;10205;49.678;6.560;2022-12-31T08:52:55;18.00;71.40
20091;DHT22;10205;49.678;6.560;2022-12-31T08:55:23;18.00;71.50
20091;DHT22;10205;49.678;6.560;2022-12-31T08:58:02;18.00;71.50
20091;DHT22;10205;49.678;6.560;2022-12-31T09:00:36;18.00;71.70
20091;DHT22;10205;49.678;6.560;2022-12-31T09:03:18;18.00;71.50
20091;DHT22;10205;49.678;6.560;2022-12-31T09:06:15;18.00;70.80
20091;DHT22;10205;49.678;6.560;2022-12-31T09:08:52;18.00;70.70
20091;DHT22;10205;49.678;6.560;2022-12-31T09:11:28;18.10;71.10
20091;DHT22;10205;49.678;6.560;2022-12-31T09:14:12;18.10;71.30
20091;DHT22;10205;49.678;6.560;2022-12-31T09:16:56;18.10;71.00
20091;DHT22;10205;49.678;6.560;2022-12-31T09:19:27;18.10;71.30
20091;DHT22;10205;49.678;6.560;2022-12-31T09:21:58;18.10;71.30
20091;DHT22;10205;49.678;6.560;2022-12-31T09:24:27;18.10;71.00
20091;DHT22;10205;49.678;6.560;2022-12-31T09:27:02;18.10;71.00
20091;DHT22;10205;49.678;6.560;2022-12-31T09:29:44;18.10;70.70
20091;DHT22;10205;49.678;6.560;2022-12-31T09:32:23;18.10;70.30
20091;DHT22;10205;49.678;6.560;2022-12-31T09:34:59;18.20;70.50
20091;DHT22;10205;49.678;6.560;2022-12-31T09:37:39;18.20;70.70
20091;DHT22;10205;49.678;6.560;2022-12-31T09:40:45;18.20;70.60
20091;DHT22;10205;49.678;6.560;2022-12-31T09:47:06;18.20;70.30
20091;DHT22;10205;49.678;6.560;2022-12-31T09:53:15;18.30;70.50
20091;DHT22;10205;49.678;6.560;2022-12-31T09:56:00;18.30;70.00
20091;DHT22;10205;49.678;6.560;2022-12-31T09:58:39;18.30;70.30
20091;DHT22;10205;49.678;6.560;2022-12-31T10:01:27;18.30;70.70
20091;DHT22;10205;49.678;6.560;2022-12-31T10:07:35;18.30;69.60
20091;DHT22;10205;49.678;6.560;2022-12-31T10:10:15;18.40;69.90
20091;DHT22;10205;49.678;6.560;2022-12-31T10:13:06;18.40;70.10
20091;DHT22;10205;49.678;6.560;2022-12-31T10:16:10;18.40;70.00
20091;DHT22;10205;49.678;6.560;2022-12-31T10:19:12;18.40;69.80
20091;DHT22;10205;49.678;6.560;2022-12-31T10:22:05;18.50;70.00
20091;DHT22;10205;49.678;6.560;2022-12-31T10:24:59;18.50;69.70
20091;DHT22;10205;49.678;6.560;2022-12-31T10:27:48;18.50;69.80
20091;DHT22;10205;49.678;6.560;2022-12-31T10:30:23;18.50;69.80
20091;DHT22;10205;49.678;6.560;2022-12-31T10:33:00;18.60;69.60
20091;DHT22;10205;49.678;6.560;2022-12-31T10:35:38;18.60;69.10
20091;DHT22;10205;49.678;6.560;2022-12-31T10:38:18;18.60;69.80
20091;DHT22;10205;49.678;6.560;2022-12-31T10:41:28;18.60;69.70
20091;DHT22;10205;49.678;6.560;2022-12-31T10:44:57;18.60;69.40
20091;DHT22;10205;49.678;6.560;2022-12-31T10:51:41;18.70;69.50
20091;DHT22;10205;49.678;6.560;2022-12-31T10:57:45;18.80;68.90
20091;DHT22;10205;49.678;6.560;2022-12-31T11:00:33;18.80;69.30
20091;DHT22;10205;49.678;6.560;2022-12-31T11:03:31;18.80;68.20
20091;DHT22;10205;49.678;6.560;2022-12-31T11:13:50;19.00;68.70
20091;DHT22;10205;49.678;6.560;2022-12-31T11:20:27;19.00;68.30
20091;DHT22;10205;49.678;6.560;2022-12-31T11:23:15;19.10;68.00
20091;DHT22;10205;49.678;6.560;2022-12-31T11:26:00;19.10;67.60
20091;DHT22;10205;49.678;6.560;2022-12-31T11:29:02;19.10;67.30
20091;DHT22;10205;49.678;6.560;2022-12-31T11:31:53;19.20;67.60
20091;DHT22;10205;49.678;6.560;2022-12-31T11:37:48;19.20;67.40
20091;DHT22;10205;49.678;6.560;2022-12-31T11:40:34;19.30;68.20
20091;DHT22;10205;49.678;6.560;2022-12-31T11:43:15;19.30;68.00
20091;DHT22;10205;49.678;6.560;2022-12-31T11:46:15;19.30;67.70
20091;DHT22;10205;49.678;6.560;2022-12-31T11:49:23;19.40;67.00
20091;DHT22;10205;49.678;6.560;2022-12-31T11:52:23;19.40;67.10
20091;DHT22;10205;49.678;6.560;2022-12-31T11:55:23;19.40;66.90
20091;DHT22;10205;49.678;6.560;2022-12-31T11:58:00;19.50;66.30
20091;DHT22;10205;49.678;6.560;2022-12-31T12:00:37;19.50;67.40
20091;DHT22;10205;49.678;6.560;2022-12-31T12:03:08;19.50;67.30
20091;DHT22;10205;49.678;6.560;2022-12-31T12:05:38;19.50;67.10
20091;DHT22;10205;49.678;6.560;2022-12-31T12:08:05;19.50;66.70
20091;DHT22;10205;49.678;6.560;2022-12-31T12:10:37;19.60;68.20
20091;DHT22;10205;49.678;6.560;2022-12-31T12:13:12;19.60;66.60
20091;DHT22;10205;49.678;6.560;2022-12-31T12:15:48;19.60;66.90
20091;DHT22;10205;49.678;6.560;2022-12-31T12:18:29;19.60;66.30
20091;DHT22;10205;49.678;6.560;2022-12-31T12:21:04;19.60;66.20
20091;DHT22;10205;49.678;6.560;2022-12-31T12:23:34;19.60;66.30
20091;DHT22;10205;49.678;6.560;2022-12-31T12:26:02;19.60;66.20
20091;DHT22;10205;49.678;6.560;2022-12-31T12:28:41;19.70;66.10
20091;DHT22;10205;49.678;6.560;2022-12-31T12:31:17;19.70;65.50
20091;DHT22;10205;49.678;6.560;2022-12-31T12:33:49;19.70;65.90
20091;DHT22;10205;49.678;6.560;2022-12-31T12:36:18;19.70;65.90
20091;DHT22;10205;49.678;6.560;2022-12-31T12:38:46;19.70;65.70
20091;DHT22;10205;49.678;6.560;2022-12-31T12:41:20;19.70;65.20
20091;DHT22;10205;49.678;6.560;2022-12-31T12:44:01;19.80;64.90
20091;DHT22;10205;49.678;6.560;2022-12-31T12:46:32;19.80;65.60
20091;DHT22;10205;49.678;6.560;2022-12-31T12:49:02;19.80;65.90
20091;DHT22;10205;49.678;6.560;2022-12-31T12:51:42;19.80;65.40
20091;DHT22;10205;49.678;6.560;2022-12-31T12:54:27;19.80;64.80
20091;DHT22;10205;49.678;6.560;2022-12-31T12:57:12;19.80;64.60
20091;DHT22;10205;49.678;6.560;2022-12-31T12:59:56;19.80;64.70
20091;DHT22;10205;49.678;6.560;2022-12-31T13:06:23;19.80;64.60
20091;DHT22;10205;49.678;6.560;2022-12-31T13:09:12;19.80;64.30
20091;DHT22;10205;49.678;6.560;2022-12-31T13:11:58;19.80;63.90
20091;DHT22;10205;49.678;6.560;2022-12-31T13:14:41;19.70;64.10
20091;DHT22;10205;49.678;6.560;2022-12-31T13:17:31;19.70;64.80
20091;DHT22;10205;49.678;6.560;2022-12-31T13:20:11;19.70;64.50
20091;DHT22;10205;49.678;6.560;2022-12-31T13:22:48;19.70;64.00
20091;DHT22;10205;49.678;6.560;2022-12-31T13:25:26;19.70;64.20
20091;DHT22;10205;49.678;6.560;2022-12-31T13:28:03;19.70;63.70
20091;DHT22;10205;49.678;6.560;2022-12-31T13:30:37;19.70;64.30
20091;DHT22;10205;49.678;6.560;2022-12-31T13:33:14;19.70;64.10
20091;DHT22;10205;49.678;6.560;2022-12-31T13:35:46;19.70;64.90
20091;DHT22;10205;49.678;6.560;2022-12-31T13:38:20;19.60;64.30
20091;DHT22;10205;49.678;6.560;2022-12-31T13:40:57;19.60;63.70
20091;DHT22;10205;49.678;6.560;2022-12-31T13:43:35;19.60;64.10
20091;DHT22;10205;49.678;6.560;2022-12-31T13:46:16;19.60;64.50
20091;DHT22;10205;49.678;6.560;2022-12-31T13:48:52;19.60;63.80
20091;DHT22;10205;49.678;6.560;2022-12-31T13:51:28;19.60;64.50
20091;DHT22;10205;49.678;6.560;2022-12-31T13:54:16;19.60;65.00
20091;DHT22;10205;49.678;6.560;2022-12-31T13:56:53;19.50;64.30
20091;DHT22;10205;49.678;6.560;2022-12-31T13:59:28;19.50;64.10
20091;DHT22;10205;49.678;6.560;2022-12-31T14:02:04;19.50;64.20
20091;DHT22;10205;49.678;6.560;2022-12-31T14:04:45;19.50;64.30
20091;DHT22;10205;49.678;6.560;2022-12-31T14:07:18;19.50;63.60
20091;DHT22;10205;49.678;6.560;2022-12-31T14:09:50;19.50;63.90
20091;DHT22;10205;49.678;6.560;2022-12-31T14:12:30;19.40;64.10
20091;DHT22;10205;49.678;6.560;2022-12-31T14:15:10;19.40;63.80
20091;DHT22;10205;49.678;6.560;2022-12-31T14:17:46;19.40;63.60
20091;DHT22;10205;49.678;6.560;2022-12-31T14:20:22;19.40;63.70
20091;DHT22;10205;49.678;6.560;2022-12-31T14:23:03;19.30;63.40
20091;DHT22;10205;49.678;6.560;2022-12-31T14:25:42;19.30;64.30
20091;DHT22;10205;49.678;6.560;2022-12-31T14:28:18;19.30;62.80
20091;DHT22;10205;49.678;6.560;2022-12-31T14:30:51;19.30;63.90
20091;DHT22;10205;49.678;6.560;2022-12-31T14:33:33;19.30;63.70
20091;DHT22;10205;49.678;6.560;2022-12-31T14:36:19;19.30;63.40
20091;DHT22;10205;49.678;6.560;2022-12-31T14:39:04;19.30;63.00
20091;DHT22;10205;49.678;6.560;2022-12-31T14:41:57;19.20;63.10
20091;DHT22;10205;49.678;6.560;2022-12-31T14:44:45;19.30;63.60
20091;DHT22;10205;49.678;6.560;2022-12-31T14:47:29;19.30;64.60
20091;DHT22;10205;49.678;6.560;2022-12-31T14:50:10;19.20;64.30
20091;DHT22;10205;49.678;6.560;2022-12-31T14:52:51;19.20;63.90
20091;DHT22;10205;49.678;6.560;2022-12-31T14:55:28;19.20;63.80
20091;DHT22;10205;49.678;6.560;2022-12-31T14:58:01;19.20;63.30
20091;DHT22;10205;49.678;6.560;2022-12-31T15:00:31;19.20;63.10
20091;DHT22;10205;49.678;6.560;2022-12-31T15:03:03;19.30;63.30
20091;DHT22;10205;49.678;6.560;2022-12-31T15:05:32;19.20;63.80
20091;DHT22;10205;49.678;6.560;2022-12-31T15:08:12;19.20;63.50
20091;DHT22;10205;49.678;6.560;2022-12-31T15:11:01;19.20;62.70
20091;DHT22;10205;49.678;6.560;2022-12-31T15:13:51;19.20;63.20
20091;DHT22;10205;49.678;6.560;2022-12-31T15:16:49;19.20;63.50
20091;DHT22;10205;49.678;6.560;2022-12-31T15:19:43;19.20;63.60
20091;DHT22;10205;49.678;6.560;2022-12-31T15:22:36;19.10;63.00
20091;DHT22;10205;49.678;6.560;2022-12-31T15:25:20;19.10;63.10
20091;DHT22;10205;49.678;6.560;2022-12-31T15:27:52;19.10;62.80
20091;DHT22;10205;49.678;6.560;2022-12-31T15:30:36;19.10;63.20
20091;DHT22;10205;49.678;6.560;2022-12-31T15:33:08;19.10;63.40
20091;DHT22;10205;49.678;6.560;2022-12-31T15:35:48;19.10;63.60
20091;DHT22;10205;49.678;6.560;2022-12-31T15:38:32;19.00;63.20
20091;DHT22;10205;49.678;6.560;2022-12-31T15:41:13;19.00;64.50
20091;DHT22;10205;49.678;6.560;2022-12-31T15:43:46;19.00;63.60
20091;DHT22;10205;49.678;6.560;2022-12-31T15:46:18;19.00;63.90
20091;DHT22;10205;49.678;6.560;2022-12-31T15:48:49;19.00;64.00
20091;DHT22;10205;49.678;6.560;2022-12-31T15:51:27;18.90;63.10
20091;DHT22;10205;49.678;6.560;2022-12-31T15:53:57;18.90;63.00
20091;DHT22;10205;49.678;6.560;2022-12-31T15:56:31;18.90;63.40
20091;DHT22;10205;49.678;6.560;2022-12-31T15:59:02;18.90;63.00
20091;DHT22;10205;49.678;6.560;2022-12-31T16:01:35;18.80;64.10
20091;DHT22;10205;49.678;6.560;2022-12-31T16:04:13;18.80;63.00
20091;DHT22;10205;49.678;6.560;2022-12-31T16:06:42;18.80;62.80
20091;DHT22;10205;49.678;6.560;2022-12-31T16:09:21;18.80;63.10
20091;DHT22;10205;49.678;6.560;2022-12-31T16:11:51;18.80;62.20
20091;DHT22;10205;49.678;6.560;2022-12-31T16:14:25;18.70;62.90
20091;DHT22;10205;49.678;6.560;2022-12-31T16:17:00;18.70;63.40
20091;DHT22;10205;49.678;6.560;2022-12-31T16:19:32;18.70;63.60
20091;DHT22;10205;49.678;6.560;2022-12-31T16:22:05;18.70;63.10
20091;DHT22;10205;49.678;6.560;2022-12-31T16:24:34;18.70;63.20
20091;DHT22;10205;49.678;6.560;2022-12-31T16:27:05;18.70;62.80
20091;DHT22;10205;49.678;6.560;2022-12-31T16:29:35;18.70;63.30
20091;DHT22;10205;49.678;6.560;2022-12-31T16:32:10;18.60;63.40
20091;DHT22;10205;49.678;6.560;2022-12-31T16:34:39;18.70;63.40
20091;DHT22;10205;49.678;6.560;2022-12-31T16:37:14;18.60;63.40
20091;DHT22;10205;49.678;6.560;2022-12-31T16:40:07;18.60;63.70
20091;DHT22;10205;49.678;6.560;2022-12-31T16:42:45;18.60;63.70
20091;DHT22;10205;49.678;6.560;2022-12-31T16:45:28;18.60;62.50
20091;DHT22;10205;49.678;6.560;2022-12-31T16:48:01;18.60;63.20
20091;DHT22;10205;49.678;6.560;2022-12-31T16:50:34;18.50;63.60
20091;DHT22;10205;49.678;6.560;2022-12-31T16:53:04;18.50;63.30
20091;DHT22;10205;49.678;6.560;2022-12-31T16:55:33;18.50;63.40
20091;DHT22;10205;49.678;6.560;2022-12-31T16:58:06;18.50;62.80
20091;DHT22;10205;49.678;6.560;2022-12-31T17:00:41;18.50;62.60
20091;DHT22;10205;49.678;6.560;2022-12-31T17:03:16;18.50;62.60